Date,TemperatureHighF,TemperatureAvgF,TemperatureLowF,DewpointHighF,DewpointAvgF,DewpointLowF,HumidityHigh,HumidityAvg,HumidityLow,PressureMaxIn,PressureMinIn,WindSpeedMaxMPH,WindSpeedAvgMPH,GustSpeedMaxMPH,PrecipitationSumIn
2013-1-1,15,6,0,8,1,-4,91,83,64,30.18,30.00,0,0,2,0.00
2013-1-2,23,13,-3,1,-2,-6,84,53,35,30.29,30.09,2,0,4,0.00
2013-1-3,28,10,-4,-2,-7,-12,87,49,19,30.42,30.29,5,0,5,0.00
2013-1-4,36,19,7,7,1,-9,66,46,26,30.33,29.99,1,0,6,0.01
2013-1-5,39,26,13,6,0,-6,66,35,17,30.17,29.97,1,0,6,0.00
2013-1-6,46,26,11,3,-1,-6,60,35,11,30.17,29.90,2,0,6,0.00
2013-1-7,44,26,18,8,1,-4,52,35,17,29.90,29.75,0,0,2,0.00
2013-1-8,44,32,19,13,6,-6,70,36,19,30.03,29.67,3,1,10,0.00
2013-1-9,46,28,18,12,8,4,69,45,18,30.23,29.96,1,0,6,0.00
2013-1-10,44,30,18,16,4,-4,63,38,14,29.96,29.34,5,1,9,0.00
2013-1-11,27,17,3,21,4,-11,86,57,30,29.67,29.01,5,2,14,0.00
2013-1-12,15,3,-10,-7,-11,-16,80,54,24,30.04,29.67,2,0,6,0.00
2013-1-13,10,-1,-12,-3,-10,-17,92,67,40,30.22,30.04,3,0,6,0.00
2013-1-14,14,2,-5,2,-4,-10,89,74,53,30.20,30.07,2,0,6,0.00
2013-1-15,26,12,-9,9,-4,-18,68,51,35,30.30,30.16,2,0,6,0.00
2013-1-16,39,25,14,15,12,7,79,59,36,30.30,30.11,2,0,9,0.00
2013-1-17,41,25,12,19,13,10,92,65,37,30.35,30.19,2,0,6,0.00
2013-1-18,42,31,16,12,6,-1,76,37,22,30.19,29.97,2,1,7,0.00
2013-1-19,45,32,22,6,1,-5,41,27,16,30.08,29.96,2,0,5,0.00
2013-1-20,46,32,14,6,-3,-14,66,25,10,30.00,29.85,2,0,6,0.00
2013-1-21,44,35,14,9,4,-6,68,29,16,30.00,29.92,3,1,9,0.00
2013-1-22,52,42,29,-3,-10,-18,19,11,5,29.95,29.85,3,1,9,0.00
2013-1-23,56,44,27,0,-13,-30,22,9,3,29.95,29.84,1,0,8,0.00
2013-1-24,49,39,30,25,10,-8,68,34,13,29.84,29.69,4,1,11,0.00
2013-1-25,46,36,26,28,26,22,87,67,46,29.90,29.80,3,0,6,0.00
2013-1-26,47,36,27,35,28,22,96,72,49,29.82,29.38,4,0,12,0.10
2013-1-27,46,37,28,30,24,18,80,62,38,29.51,29.37,5,2,10,0.00
2013-1-28,38,31,21,30,22,6,88,69,46,29.48,29.25,4,1,7,0.01
2013-1-29,21,17,9,12,0,-11,75,49,24,29.80,29.34,3,0,6,0.00
2013-1-30,29,18,3,8,0,-9,61,46,33,29.95,29.81,4,2,13,0.01
2013-1-31,38,29,22,12,8,4,62,43,30,29.98,29.89,5,2,11,0.00
2013-2-1,39,30,23,13,10,6,58,42,28,29.99,29.84,4,2,8,0.01
2013-2-2,46,33,22,9,5,0,49,31,15,30.10,29.97,2,0,5,0.00
2013-2-3,43,32,21,11,4,-6,46,31,13,30.04,29.70,4,0,9,0.00
2013-2-4,45,34,23,6,1,-2,36,25,15,29.75,29.64,3,1,7,0.00
2013-2-5,50,34,20,11,8,3,59,35,15,29.82,29.68,1,0,5,0.00
2013-2-6,45,35,27,16,12,8,59,39,23,29.69,29.54,2,0,7,0.00
2013-2-7,42,27,13,19,9,-13,84,52,9,29.93,29.69,4,0,15,0.00
2013-2-8,36,29,23,19,15,8,68,55,49,29.92,29.68,8,2,8,0.00
2013-2-10,30,22,14,15,7,-6,90,58,21,29.81,29.56,3,1,9,0.00
2013-2-11,17,11,0,13,7,-4,90,85,82,30.05,29.81,1,0,9,0.00
2013-2-12,26,12,-3,11,5,-7,90,72,47,30.16,30.05,1,0,9,0.19
2013-2-13,37,25,12,13,9,5,76,51,32,30.08,29.87,4,1,10,0.07
2013-2-14,35,24,11,17,10,4,89,59,28,30.09,29.85,2,0,9,0.01
2013-2-15,32,22,9,12,4,-4,89,49,21,30.21,30.06,3,1,14,0.00
2013-2-16,43,30,17,11,6,2,57,37,24,30.18,29.83,3,1,9,0.00
2013-2-17,43,33,22,12,0,-8,64,26,12,29.83,29.37,3,0,9,0.00
2013-2-18,30,21,8,13,2,-6,81,45,22,29.96,29.40,2,0,9,0.00
2013-2-19,38,24,6,9,-1,-16,79,39,10,29.98,29.60,3,0,13,0.00
2013-2-20,33,23,16,20,16,4,92,75,49,29.60,29.31,1,0,9,0.00
2013-2-21,32,21,12,24,17,9,100,86,63,29.69,29.36,2,0,9,0.20
2013-2-22,29,18,10,18,12,6,93,79,48,29.84,29.67,2,0,9,0.03
2013-2-23,37,24,14,20,10,1,90,57,37,29.81,29.47,4,1,9,0.06
2013-2-24,24,17,2,20,13,-2,94,84,60,29.94,29.41,2,0,9,0.01
2013-2-25,34,18,-1,14,6,-4,92,62,35,30.06,29.77,2,0,9,0.19
2013-2-26,27,19,5,18,10,1,88,69,44,30.00,29.56,1,0,9,0.00
2013-2-27,30,14,-2,9,0,-6,91,58,25,30.27,30.00,2,0,9,0.08
2013-2-28,35,22,7,10,1,-5,61,41,25,30.24,30.09,3,1,9,0.01
2013-3-1,43,30,20,18,13,8,70,51,30,30.17,30.07,3,1,9,0.00
2013-3-2,49,38,26,20,17,13,68,45,28,30.15,29.84,3,1,9,0.00
2013-3-3,49,40,30,24,17,10,68,41,24,29.84,29.38,5,1,11,0.00
2013-3-4,43,30,14,27,21,11,93,72,31,29.87,29.37,4,1,9,0.00
2013-3-5,47,30,9,14,5,-12,91,44,8,30.11,29.87,2,0,9,0.06
2013-3-6,50,38,22,19,11,1,55,32,24,29.96,29.58,5,1,16,0.00
2013-3-7,53,43,29,16,8,0,52,25,13,29.60,29.51,6,2,13,0.00
2013-3-8,48,38,28,27,19,13,84,50,26,29.58,29.28,6,0,19,0.00
2013-3-9,30,26,18,26,22,16,92,86,75,29.80,29.22,1,0,9,0.00
2013-3-10,38,23,5,18,11,2,91,63,32,30.02,29.80,2,0,9,0.28
2013-3-11,28,25,18,14,11,10,70,56,49,30.00,29.88,3,1,9,0.00
2013-3-12,48,36,19,24,20,17,95,55,32,30.02,29.88,2,0,11,0.00
2013-3-13,53,41,26,22,18,14,75,42,26,30.03,29.95,3,1,15,0.00
2013-3-14,60,46,34,18,15,11,46,30,15,30.00,29.83,2,0,13,0.00
2013-3-15,60,49,34,20,16,11,56,28,16,29.83,29.51,5,1,19,0.00
2013-3-16,44,35,29,32,25,18,92,67,43,29.58,29.48,2,0,9,0.00
2013-3-17,44,33,24,30,21,11,91,64,29,29.56,29.31,6,1,21,0.04
2013-3-18,39,31,26,17,8,2,60,38,27,29.73,29.54,5,2,23,0.00
2013-3-19,44,33,19,11,5,-15,67,34,8,29.99,29.70,2,0,15,0.00
2013-3-20,48,32,12,23,12,3,77,48,21,30.01,29.62,4,1,10,0.00
2013-3-21,44,35,24,30,19,6,80,52,32,29.61,29.23,5,2,18,0.00
2013-3-22,40,29,18,22,14,6,93,59,29,29.53,29.37,3,0,9,0.00
2013-3-23,28,15,6,16,10,2,92,81,43,30.04,29.42,3,0,9,0.00
2013-3-24,23,11,-6,12,4,-10,94,74,51,30.18,30.02,2,0,9,0.22
2013-3-25,33,14,-6,10,2,-10,89,64,22,30.24,30.15,2,0,9,0.04
2013-3-26,48,31,8,17,12,5,92,51,25,30.23,29.78,3,1,9,0.01
2013-3-27,53,40,28,25,18,10,66,43,19,29.78,29.65,3,1,10,0.00
2013-3-28,54,39,25,26,20,12,88,53,19,29.84,29.74,2,0,9,0.00
2013-3-29,56,41,27,25,21,15,84,49,21,29.85,29.73,3,1,15,0.00
2013-3-30,56,42,29,26,21,16,79,48,22,29.83,29.68,3,1,9,0.00
2013-3-31,59,43,27,30,19,9,95,47,15,29.82,29.63,3,1,9,0.00
2013-4-1,51,38,26,27,22,14,90,53,35,29.72,29.51,3,0,9,0.00
2013-4-2,40,30,24,28,25,22,95,85,59,29.86,29.68,3,0,11,0.00
2013-4-3,50,33,21,35,26,19,100,78,30,29.96,29.84,2,0,9,0.29
2013-4-4,59,42,27,24,18,10,87,43,16,29.97,29.75,2,0,9,0.00
2013-4-5,60,46,32,31,21,12,73,40,16,29.75,29.40,4,1,14,0.00
2013-4-6,56,43,28,31,19,2,80,43,12,29.54,29.45,4,1,12,0.00
2013-4-7,53,44,33,25,21,18,70,43,26,29.52,29.35,4,1,9,0.00
2013-4-8,56,43,32,29,21,15,65,44,21,29.39,29.00,6,1,17,0.00
2013-4-9,42,21,9,31,16,6,91,83,51,29.79,29.05,3,1,9,0.00
2013-4-10,35,18,5,24,14,1,91,83,59,29.97,29.79,3,0,9,0.39
2013-4-11,46,34,20,27,19,12,91,56,32,29.83,29.58,3,1,10,0.03
2013-4-12,49,35,21,28,23,16,95,65,27,29.71,29.60,3,0,9,0.01
2013-4-13,56,42,24,29,19,13,91,45,20,29.71,29.13,4,1,20,0.00
2013-4-14,43,36,30,33,24,11,95,64,33,29.38,29.07,5,2,12,0.31
2013-4-15,55,36,24,24,16,6,82,47,26,29.56,29.29,6,2,17,0.00
2013-4-16,36,27,18,24,21,16,100,79,57,29.65,29.46,5,2,9,0.00
2013-4-17,26,21,12,24,20,9,95,93,88,29.84,29.52,3,1,9,0.02
2013-4-18,29,19,6,18,8,2,93,66,34,30.14,29.84,3,0,9,0.23
2013-4-19,44,31,18,18,11,3,61,43,29,30.14,29.78,3,1,10,0.03
2013-4-20,46,36,28,28,22,15,88,58,35,29.78,29.59,2,1,9,0.00
2013-4-21,54,39,26,27,19,8,90,51,17,29.84,29.69,3,1,9,0.00
2013-4-22,57,39,18,29,22,14,93,56,18,29.71,29.42,6,2,11,0.00
2013-4-23,26,18,13,21,16,11,93,89,79,30.14,29.67,1,0,9,0.07
2013-4-24,47,30,12,22,13,6,99,55,20,30.16,30.02,3,0,9,0.00
2013-4-25,58,41,23,26,19,12,78,46,21,30.04,29.60,5,1,9,0.00
2013-4-26,53,43,34,30,22,16,73,45,24,29.92,29.64,4,0,11,0.00
2013-4-27,62,45,28,28,17,4,89,42,11,29.92,29.75,3,1,5,0.00
2013-4-28,68,52,34,21,15,11,48,25,11,29.76,29.47,3,1,8,0.00
2013-4-29,68,54,35,28,19,12,62,28,13,29.48,29.24,4,1,10,0.00
2013-4-30,68,56,41,33,20,11,69,27,11,29.26,29.14,5,1,9,0.00
2013-5-1,42,28,18,33,25,16,96,90,70,30.28,29.26,5,2,10,0.02
2013-5-2,33,23,11,29,20,8,94,90,82,30.54,30.28,1,0,4,0.53
2013-5-3,54,36,17,27,19,11,94,55,20,30.37,29.86,2,0,6,0.02
2013-5-4,51,40,24,25,20,17,79,48,32,29.86,29.70,3,1,9,0.00
2013-5-5,52,38,25,27,20,17,77,51,30,29.86,29.77,1,0,6,0.00
2013-5-6,52,40,30,38,31,19,95,72,49,29.84,29.60,4,0,5,0.17
2013-5-7,55,43,33,38,32,23,95,67,30,29.66,29.57,3,0,7,0.01
2013-5-8,46,38,32,40,33,29,97,83,56,29.78,29.61,4,0,12,0.71
2013-5-9,38,34,31,36,33,30,97,94,87,30.00,29.74,2,0,4,0.51
2013-5-10,49,38,27,40,32,26,99,82,58,30.07,29.95,3,0,6,0.07
2013-5-11,60,42,31,37,32,25,95,70,27,30.11,29.95,3,0,7,0.01
2013-5-12,66,52,33,35,31,24,95,49,22,29.99,29.76,2,0,6,0.00
2013-5-13,69,56,40,40,32,27,73,43,23,29.81,29.67,2,0,6,0.00
2013-5-14,68,56,46,45,36,30,74,48,26,29.67,29.48,6,1,11,0.01
2013-5-15,67,50,41,44,38,35,89,66,33,29.54,29.47,4,0,5,0.03
2013-5-16,71,53,36,40,33,25,97,55,18,29.54,29.41,3,0,9,0.01
2013-5-17,70,57,38,33,18,1,73,29,9,29.49,29.38,5,1,12,0.00
2013-5-18,63,51,41,32,22,9,59,34,16,29.40,29.29,4,1,8,0.00
2013-5-19,55,45,35,28,25,20,71,46,26,29.51,29.39,5,1,11,0.00
2013-5-20,57,43,34,38,29,23,89,61,30,29.67,29.47,3,1,8,0.08
2013-5-21,63,46,30,30,26,18,90,51,18,29.74,29.55,3,1,8,0.00
2013-5-22,68,51,31,35,29,21,91,48,18,29.59,29.42,4,0,10,0.00
2013-5-23,64,49,41,42,40,29,90,72,40,29.61,29.47,4,1,6,0.00
2013-5-24,73,58,36,43,22,7,97,38,9,29.67,29.52,6,1,13,0.00
2013-5-25,74,59,39,27,14,5,51,20,7,29.53,29.40,6,1,12,0.00
2013-5-26,70,53,42,30,18,8,49,27,9,29.48,29.33,2,0,11,0.00
2013-5-27,70,57,44,24,16,12,35,21,11,29.41,29.24,5,1,13,0.00
2013-5-28,71,56,36,30,14,-2,64,23,8,29.34,29.14,6,1,16,0.00
2013-5-29,62,51,41,31,23,16,61,35,17,29.29,29.07,5,1,11,0.00
2013-5-30,61,50,36,23,18,9,59,31,14,29.46,29.28,6,2,14,0.00
2013-5-31,62,51,34,26,13,-2,46,25,8,29.64,29.42,5,2,11,0.00
2013-6-1,66,48,30,31,19,9,64,34,13,29.81,29.64,3,1,11,0.00
2013-6-2,75,56,32,34,25,16,90,39,11,29.80,29.46,3,1,11,0.00
2013-6-3,76,61,43,33,27,19,48,29,12,29.47,29.27,5,1,15,0.00
2013-6-4,74,58,43,41,31,24,70,38,17,29.50,29.38,5,1,11,0.00
2013-6-5,59,49,43,45,43,41,96,81,59,29.71,29.51,3,1,11,0.00
2013-6-6,72,54,37,43,36,25,96,57,18,29.71,29.59,6,1,11,0.02
2013-6-7,70,52,39,46,38,31,92,64,24,29.66,29.46,4,0,11,0.06
2013-6-8,79,60,42,41,34,17,78,46,10,29.51,29.38,5,1,11,0.00
2013-6-9,85,63,39,44,32,17,94,41,8,29.54,29.44,3,1,11,0.00
2013-6-10,85,68,45,33,28,22,53,26,11,29.52,29.35,4,1,11,0.00
2013-6-11,85,69,51,33,18,-6,42,18,3,29.43,29.27,6,2,11,0.00
2013-6-12,83,67,46,36,21,15,48,19,10,29.53,29.42,4,1,11,0.00
2013-6-13,83,63,49,52,28,18,81,31,11,29.53,29.39,5,0,15,0.03
2013-6-14,79,65,49,42,37,29,68,39,18,29.52,29.33,5,1,11,0.00
2013-6-15,78,62,42,41,30,18,86,39,11,29.56,29.41,5,1,11,0.00
2013-6-16,76,56,43,52,38,29,94,54,19,29.68,29.51,3,0,11,0.20
2013-6-17,77,59,42,44,37,23,88,50,14,29.68,29.56,4,1,11,0.02
2013-6-18,75,59,43,46,40,30,92,55,20,29.64,29.41,4,1,11,0.05
2013-6-19,80,63,39,46,22,-4,98,38,4,29.47,29.29,6,1,11,0.00
2013-6-20,79,64,44,20,9,-4,27,13,4,29.39,29.31,7,1,12,0.00
2013-6-21,80,63,44,22,17,10,32,18,8,29.44,29.32,4,1,11,0.00
2013-6-22,79,64,44,33,18,9,46,20,7,29.42,29.26,5,1,14,0.00
2013-6-23,77,60,42,40,28,11,59,31,8,29.44,29.30,5,1,11,0.00
2013-6-24,76,62,47,48,26,7,88,36,8,29.40,29.31,5,1,11,0.00
2013-6-25,81,68,56,29,22,13,26,18,14,29.44,29.34,4,1,11,0.00
2013-6-26,87,69,48,39,29,20,56,27,9,29.55,29.44,3,0,11,0.00
2013-6-27,91,73,56,43,30,17,40,24,7,29.62,29.49,7,1,11,0.00
2013-6-28,86,68,52,52,42,30,74,45,14,29.63,29.48,6,1,11,0.07
2013-6-29,80,56,47,56,46,39,98,74,23,29.73,29.56,5,0,11,0.65
2013-6-30,71,55,44,56,49,43,98,83,45,29.81,29.65,5,1,11,0.09
2013-7-1,69,56,44,52,48,43,100,76,42,29.81,29.73,3,1,11,0.07
2013-7-2,71,57,43,51,45,40,99,69,34,29.79,29.63,4,1,11,0.01
2013-7-3,75,57,42,48,41,30,100,62,20,29.69,29.51,5,1,11,0.02
2013-7-4,80,64,48,44,40,33,76,45,18,29.55,29.39,4,1,11,0.00
2013-7-5,82,65,50,52,44,40,90,51,24,29.43,29.26,4,1,11,0.00
2013-7-6,78,63,52,51,46,38,90,58,26,29.50,29.35,3,0,11,0.02
2013-7-7,78,64,53,49,47,41,80,57,28,29.55,29.43,2,0,11,0.00
2013-7-8,83,64,47,52,45,31,98,58,16,29.60,29.51,3,0,11,0.01
2013-7-9,82,70,55,44,39,33,57,35,18,29.60,29.51,3,1,11,0.00
2013-7-10,84,65,53,55,46,36,84,54,20,29.60,29.47,5,1,11,0.13
2013-7-11,86,66,52,54,47,34,96,58,17,29.60,29.38,4,1,11,0.00
2013-7-12,82,68,55,54,46,41,66,46,24,29.45,29.32,6,1,11,0.00
2013-7-13,85,68,53,51,47,42,80,51,23,29.52,29.42,3,1,11,0.00
2013-7-14,77,61,51,54,50,46,94,69,35,29.64,29.49,6,1,16,0.00
2013-7-15,57,54,49,55,51,46,98,93,86,29.75,29.59,2,0,11,0.14
2013-7-16,68,56,40,50,45,39,100,71,44,29.82,29.73,3,1,11,0.00
2013-7-17,74,60,43,51,46,42,99,64,35,29.82,29.66,3,1,11,0.00
2013-7-18,80,62,49,52,48,43,96,63,30,29.70,29.48,5,1,11,0.40
2013-7-19,74,58,47,56,50,46,100,79,44,29.67,29.58,3,0,11,0.32
2013-7-20,51,47,45,51,47,44,100,98,97,29.65,29.58,0,0,11,0.01
2013-7-22,84,73,56,41,38,31,54,30,16,29.46,29.37,2,0,8,0.00
2013-7-23,85,67,50,53,37,21,89,41,10,29.56,29.44,8,1,10,0.06
2013-7-24,69,60,52,58,51,44,93,73,45,29.65,29.49,4,0,11,0.14
2013-7-25,75,60,48,55,48,42,94,70,34,29.73,29.58,5,1,8,0.13
2013-7-26,70,53,44,52,47,43,99,82,52,29.78,29.72,3,0,8,0.00
2013-7-27,60,56,53,57,52,49,93,87,77,29.52,29.46,2,0,4,0.34
2013-7-28,69,58,50,54,52,48,97,80,49,29.52,29.42,1,0,10,0.05
2013-7-29,76,61,49,53,47,40,98,64,27,29.68,29.45,3,1,13,0.00
2013-7-30,79,63,45,44,40,34,90,47,23,29.75,29.66,4,1,6,0.00
2013-7-31,83,66,47,51,39,21,85,46,10,29.76,29.59,3,1,11,0.00
2013-8-1,74,60,49,53,49,44,95,71,37,29.61,29.53,2,0,6,0.00
2013-8-2,73,63,53,48,46,44,75,53,38,29.54,29.44,2,1,11,0.02
2013-8-3,77,63,52,54,46,40,92,58,28,29.68,29.51,3,0,8,0.00
2013-8-4,83,62,47,57,48,34,99,69,19,29.66,29.51,4,0,9,0.24
2013-8-5,78,62,50,54,48,39,97,65,26,29.62,29.54,3,0,8,0.01
2013-8-6,79,59,50,53,47,39,95,71,24,29.60,29.47,3,0,6,0.24
2013-8-7,59,52,45,52,48,43,96,85,69,29.67,29.56,2,0,6,0.03
2013-8-8,63,52,44,48,44,41,89,76,51,29.75,29.59,2,0,7,0.06
2013-8-9,70,54,40,53,43,39,96,70,36,29.85,29.72,2,0,5,0.02
2013-8-10,74,58,44,46,41,32,96,61,22,29.85,29.66,3,0,11,0.05
2013-8-11,71,57,44,50,42,38,96,60,32,29.75,29.63,2,0,5,0.47
2013-8-12,71,54,43,54,46,42,100,77,37,29.77,29.65,2,0,4,0.08
2013-8-13,71,53,42,48,44,37,99,77,31,29.79,29.72,1,0,4,0.01
2013-8-14,76,64,47,47,39,25,90,45,16,29.72,29.64,2,0,6,0.01
2013-8-15,80,60,42,47,38,24,98,53,13,29.68,29.60,2,0,7,0.00
2013-8-16,82,64,45,44,36,23,87,44,12,29.67,29.60,5,1,9,0.00
2013-8-17,82,66,48,45,34,24,66,36,12,29.66,29.52,2,0,5,0.00
2013-8-18,82,64,50,50,41,29,79,46,15,29.63,29.49,3,0,7,0.00
2013-8-19,81,65,48,43,40,36,77,44,21,29.62,29.53,3,0,8,0.00
2013-8-20,81,66,48,46,38,28,75,41,17,29.58,29.47,2,0,6,0.00
2013-8-21,82,66,56,45,42,37,59,44,21,29.58,29.47,4,0,6,0.00
2013-8-22,78,65,53,60,47,42,96,57,30,29.63,29.45,3,1,12,0.85
2013-8-23,78,61,50,57,49,40,99,69,27,29.62,29.43,4,0,10,0.02
2013-8-24,75,62,50,58,46,38,78,57,33,29.60,29.48,2,0,6,0.03
2013-8-25,72,62,54,55,50,46,89,65,42,29.67,29.58,3,0,12,0.02
2013-8-26,80,66,53,52,48,43,84,55,30,29.66,29.51,3,0,7,0.00
2013-8-27,79,66,51,50,47,41,85,55,26,29.58,29.50,2,0,5,0.00
2013-8-28,82,66,50,49,43,33,82,48,18,29.59,29.50,3,1,6,0.00
2013-8-29,82,68,51,48,42,36,74,43,19,29.62,29.53,3,0,8,0.00
2013-8-30,81,67,54,51,44,32,72,48,19,29.61,29.50,2,0,6,0.00
2013-8-31,82,63,52,51,47,40,78,59,25,29.58,29.48,2,0,8,0.00
2013-9-1,73,60,50,56,51,45,96,73,42,29.66,29.55,3,0,6,0.06
2013-9-2,81,61,47,54,48,42,99,67,27,29.66,29.57,2,0,5,0.00
2013-9-3,79,67,55,52,47,44,71,51,31,29.61,29.53,3,0,6,0.00
2013-9-4,82,66,55,51,48,43,73,55,28,29.67,29.56,3,0,11,0.00
2013-9-5,82,66,51,49,42,36,82,46,20,29.70,29.58,3,0,9,0.00
2013-9-6,82,68,53,43,38,33,55,35,17,29.62,29.47,3,1,7,0.00
2013-9-7,80,65,51,43,39,34,66,41,19,29.56,29.46,3,0,6,0.00
2013-9-8,79,67,51,44,41,36,65,41,22,29.52,29.29,3,0,6,0.00
2013-9-9,76,64,53,50,44,40,74,49,30,29.39,29.27,2,0,7,0.01
2013-9-10,60,54,52,53,51,50,97,90,69,29.68,29.38,2,0,5,0.54
2013-9-11,62,54,51,55,53,51,99,94,78,29.70,29.66,1,0,4,0.25
2013-9-12,61,54,51,55,53,51,99,95,79,29.74,29.64,1,0,5,0.32
2013-9-13,58,52,45,52,50,44,100,91,69,29.64,29.48,1,0,6,0.36
2013-9-14,66,52,45,47,45,42,96,79,45,29.56,29.44,3,0,9,0.01
2013-9-15,62,50,41,52,46,40,98,85,58,29.82,29.54,3,0,6,0.53
2013-9-16,67,52,41,52,47,40,100,84,46,29.81,29.67,3,0,7,0.07
2013-9-17,69,56,45,49,46,42,98,71,38,29.71,29.45,4,0,10,0.01
2013-9-18,64,55,45,49,46,42,100,72,51,29.50,29.35,2,0,9,0.28
2013-9-19,66,52,40,47,43,39,99,76,40,29.69,29.49,4,0,9,0.05
2013-9-20,68,53,44,47,45,39,96,77,34,29.70,29.57,2,0,6,0.00
2013-9-21,70,54,40,45,41,38,99,68,32,29.65,29.44,4,0,11,0.01
2013-9-22,59,50,40,48,43,38,96,78,56,29.44,29.13,2,0,7,0.29
2013-9-23,56,46,38,38,32,25,95,60,33,29.75,29.15,4,1,14,0.01
2013-9-24,67,50,28,32,26,16,89,45,15,29.82,29.56,3,0,7,0.00
2013-9-25,63,57,47,32,26,18,50,30,26,29.56,29.12,5,2,17,0.00
2013-9-26,68,57,44,27,22,18,46,26,15,29.27,29.13,4,1,15,0.00
2013-9-27,53,46,34,43,32,20,84,58,38,29.59,29.19,3,1,9,0.04
2013-9-28,61,43,31,24,19,12,63,40,16,29.89,29.59,3,0,10,0.00
2013-9-29,65,50,34,26,20,14,69,35,14,29.86,29.59,4,1,11,0.00
2013-9-30,71,58,39,33,26,16,57,30,22,29.60,29.37,4,1,10,0.00
2013-10-1,67,55,42,34,29,23,66,38,23,29.56,29.44,2,0,8,0.00
2013-10-2,68,52,38,33,22,14,78,34,14,29.58,29.44,3,0,7,0.00
2013-10-3,65,52,37,26,23,17,61,34,16,29.46,29.22,5,1,16,0.00
2013-10-4,52,38,28,25,14,3,56,39,19,29.82,29.18,5,1,13,0.00
2013-10-5,52,37,26,15,7,-7,52,33,9,30.01,29.81,3,1,11,0.00
2013-10-6,64,44,28,23,14,4,51,30,19,30.03,29.87,2,0,7,0.00
2013-10-7,70,51,32,26,20,16,62,34,14,29.95,29.63,2,0,9,0.00
2013-10-8,63,53,39,23,21,16,49,29,18,29.63,29.34,4,1,10,0.00
2013-10-9,63,50,37,30,23,17,62,36,19,29.50,29.38,3,0,8,0.00
2013-10-10,58,42,29,38,31,24,95,69,30,29.50,29.16,5,1,12,0.08
2013-10-11,49,40,32,29,25,23,71,57,42,29.76,29.35,4,1,8,0.16
2013-10-12,49,37,25,33,28,22,96,72,35,29.89,29.75,2,0,8,0.00
2013-10-13,58,46,29,39,32,26,89,62,36,29.89,29.55,3,1,8,0.01
2013-10-14,48,41,30,37,25,20,92,54,33,29.75,29.43,4,1,8,0.02
2013-10-15,31,28,25,28,25,21,100,90,68,30.00,29.74,1,0,7,0.02
2013-10-16,43,32,21,30,22,14,96,70,37,29.99,29.85,2,0,7,0.15
2013-10-17,49,36,25,24,16,9,72,46,20,29.86,29.67,2,0,9,0.00
2013-10-18,42,29,21,28,19,6,95,70,23,29.98,29.69,2,0,7,0.03
2013-10-19,53,39,25,18,14,8,62,39,23,29.98,29.72,3,1,12,0.00
2013-10-20,52,39,27,30,20,12,91,49,25,29.74,29.53,4,0,7,0.00
2013-10-21,51,36,26,30,23,14,96,65,24,29.96,29.74,2,0,7,0.04
2013-10-22,59,40,26,26,21,16,77,52,19,30.00,29.86,1,0,7,0.00
2013-10-23,61,45,29,24,20,15,79,40,18,29.91,29.77,2,0,7,0.00
2013-10-24,60,41,28,30,24,18,86,57,20,29.91,29.81,3,0,8,0.00
2013-10-25,56,42,29,35,28,24,89,60,30,29.92,29.77,3,0,7,0.00
2013-10-26,56,40,29,32,27,20,93,65,25,30.01,29.89,2,0,7,0.00
2013-10-27,54,44,31,28,26,24,79,51,31,29.92,29.55,3,0,9,0.00
2013-10-28,52,41,27,31,26,16,92,58,25,29.57,29.43,4,0,9,0.00
2013-10-29,50,41,33,33,23,14,94,52,26,29.64,29.47,5,1,23,0.01
2013-10-30,42,33,27,32,20,15,91,59,35,29.60,29.47,3,0,8,0.02
2013-10-31,42,32,27,18,16,13,63,50,32,29.77,29.58,5,2,13,0.00
2013-11-1,47,35,27,22,16,7,71,49,20,30.00,29.74,2,0,7,0.00
2013-11-2,56,40,22,16,11,3,64,34,12,30.02,29.61,3,0,7,0.00
2013-11-3,51,42,34,23,17,8,57,36,19,29.61,29.20,4,1,14,0.00
2013-11-4,34,29,24,25,20,12,91,70,41,29.70,29.40,3,0,7,0.00
2013-11-5,35,27,16,27,16,0,95,66,34,29.99,29.62,4,1,11,0.17
2013-11-6,40,30,20,14,8,-2,50,39,31,30.22,29.97,3,1,10,0.02
2013-11-7,51,40,22,19,16,14,70,41,24,30.24,29.89,3,0,6,0.00
2013-11-8,54,41,28,18,15,11,64,36,20,29.88,29.61,5,1,10,0.00
2013-11-9,57,41,28,21,17,10,75,42,16,29.92,29.72,1,0,13,0.00
2013-11-10,53,35,27,23,18,12,76,54,22,30.01,29.90,1,0,4,0.00
2013-11-11,55,42,24,21,15,12,83,37,18,30.15,29.95,2,0,8,0.00
2013-11-12,48,31,21,28,21,17,95,71,32,30.35,30.16,1,0,8,0.00
2013-11-13,53,41,29,18,15,12,57,36,20,30.29,29.73,2,0,8,0.00
2013-11-14,51,39,28,24,18,1,80,45,13,29.73,29.50,2,0,8,0.00
2013-11-15,44,36,28,30,20,13,92,55,34,29.50,29.23,3,1,8,0.00
2013-11-16,40,34,28,29,22,14,94,65,35,29.26,29.16,6,1,10,0.02
2013-11-17,43,33,25,26,18,13,92,56,33,29.89,29.26,5,2,11,0.10
2013-11-18,51,36,26,19,14,8,69,44,20,29.95,29.83,2,0,8,0.00
2013-11-19,46,38,28,22,18,14,64,47,34,29.82,29.53,2,0,8,0.00
2013-11-20,47,38,28,30,23,20,91,56,34,29.56,29.45,2,0,8,0.00
2013-11-21,32,22,9,30,21,6,100,93,89,30.29,29.53,2,0,8,0.00
2013-11-22,24,19,9,22,17,7,100,92,90,30.49,30.28,0,0,8,0.00
2013-11-23,24,20,17,20,18,15,95,90,80,30.46,30.24,0,0,8,0.00
2013-11-24,31,25,17,29,23,15,96,91,83,30.24,29.77,1,0,8,0.00
2013-11-25,33,24,14,26,20,13,95,83,61,30.18,29.77,1,0,8,0.18
2013-11-26,34,23,14,25,18,12,95,81,56,30.32,30.17,2,0,8,0.29
2013-11-27,45,29,17,27,20,14,86,68,43,30.22,29.97,1,0,8,0.17
2013-11-28,43,28,19,21,17,14,90,64,38,30.06,29.96,1,0,8,0.02
2013-11-29,43,33,21,17,14,11,76,46,28,30.04,29.97,2,0,9,0.01
2013-11-30,42,33,26,18,14,12,62,46,29,30.01,29.92,2,0,8,0.00
2013-12-1,42,34,27,23,15,12,61,46,33,29.97,29.71,3,1,11,0.00
2013-12-2,46,38,34,22,19,14,58,46,32,29.72,29.35,4,1,11,0.00
2013-12-3,38,34,28,24,19,14,69,54,42,29.35,29.14,3,1,11,0.00
2013-12-4,32,6,-14,23,2,-18,92,85,68,29.96,29.10,2,0,8,0.00
2013-12-5,10,-5,-16,6,-9,-21,92,81,75,30.23,29.96,1,0,8,0.07
2013-12-6,15,0,-17,6,-6,-22,92,76,59,30.34,30.21,1,0,8,0.00
2013-12-7,21,15,9,15,7,0,92,71,50,30.28,29.56,3,1,8,0.00
2013-12-8,19,12,2,13,0,-9,90,61,36,29.89,29.47,3,1,8,0.00
2013-12-9,14,6,-8,-7,-10,-13,85,51,31,30.36,29.89,4,1,12,0.00
2013-12-10,32,22,3,8,2,-12,50,41,33,30.37,30.01,4,1,10,0.00
2013-12-11,35,24,8,10,4,0,80,46,28,30.29,30.08,2,0,8,0.01
2013-12-12,45,34,18,9,3,-4,48,27,17,30.28,29.73,2,0,8,0.05
2013-12-13,40,31,16,12,10,5,72,42,28,29.84,29.52,3,1,8,0.01
2013-12-14,34,24,12,12,8,6,77,53,33,30.18,29.84,3,1,9,0.00
2013-12-15,44,33,23,18,14,11,65,46,31,30.16,30.00,4,1,9,0.00
2013-12-16,47,37,27,19,13,7,51,38,27,30.05,29.90,3,1,8,0.00
2013-12-17,49,34,21,16,12,8,62,42,23,30.15,29.99,3,0,8,0.00
2013-12-18,51,42,30,19,10,5,52,28,16,29.99,29.40,2,1,8,0.00
2013-12-19,44,37,25,20,16,11,70,44,27,29.40,29.20,3,1,10,0.00
2013-12-20,35,26,18,22,17,14,86,69,49,29.45,29.35,3,0,13,0.00
2013-12-21,30,22,9,20,12,6,91,67,39,29.67,29.30,3,0,8,0.00
2013-12-22,26,16,4,11,7,0,94,67,47,30.13,29.68,2,0,8,0.12
2013-12-23,33,25,18,15,10,6,64,52,37,30.19,30.11,3,0,13,0.02
2013-12-24,40,29,12,22,16,3,71,58,40,30.11,29.82,6,1,18,0.01
2013-12-25,36,24,8,6,2,-6,74,40,25,30.27,30.07,1,0,6,0.00
2013-12-26,43,31,23,14,6,-2,59,36,23,30.21,30.03,2,0,8,0.00
2013-12-27,48,31,20,19,16,12,76,55,29,30.13,29.92,1,0,5,0.00
2013-12-28,44,34,22,28,19,16,93,58,33,29.92,29.60,3,0,10,0.00
2013-12-29,28,22,15,22,16,10,94,80,52,29.93,29.72,4,0,5,0.16
2013-12-30,37,25,14,14,10,7,83,55,33,30.12,29.90,2,0,7,0.06
2013-12-31,42,33,16,20,15,8,72,48,38,30.07,29.73,4,1,9,0.05
2014-1-1,36,28,13,27,14,6,100,57,31,30.03,29.66,2,1,10,0.01
2014-1-2,44,32,19,12,6,2,63,35,22,30.10,29.87,3,0,9,0.01